Time;durP1;ratioP1;P1;durP2;ratioP2;P2;SDS_P1;SDS_P2;PMS_P1;PMS_P2;Temp;Humidity;BMP_temperature;BMP_pressure;BME280_temperature;BME280_humidity;BME280_pressure;Samples;Min_cycle;Max_cycle;Signal;HPM_P1;HPM_P2
2023/01/14 00:00:07;;;;;;;14.35;6.50;;;;;;;;;;5044992;28;20443;-66
2023/01/14 00:02:36;;;;;;;14.75;6.10;;;;;;;;;;5048631;28;20067;-65
2023/01/14 00:05:02;;;;;;;13.77;5.80;;;;;;;;;;5049641;28;20086;-66
2023/01/14 00:07:29;;;;;;;13.60;5.57;;;;;;;;;;5046330;28;20432;-65
2023/01/14 00:09:55;;;;;;;12.88;5.72;;;;;;;;;;5047855;28;20031;-65
2023/01/14 00:12:21;;;;;;;14.23;5.82;;;;;;;;;;5043639;28;20050;-65
2023/01/14 00:14:47;;;;;;;13.40;5.72;;;;;;;;;;5044346;28;20042;-65
2023/01/14 00:17:13;;;;;;;15.50;5.90;;;;;;;;;;5040783;28;20194;-64
2023/01/14 00:19:39;;;;;;;14.60;5.13;;;;;;;;;;5045856;28;20706;-63
2023/01/14 00:22:06;;;;;;;13.90;5.22;;;;;;;;;;5035432;28;20395;-66
2023/01/14 00:24:32;;;;;;;;;;;;;;;;;;5041849;28;20032;-64
2023/01/14 00:26:58;;;;;;;11.95;5.13;;;;;;;;;;5047297;28;20392;-64
2023/01/14 00:29:27;;;;;;;10.43;4.88;;;;;;;;;;5045989;28;20488;-64
2023/01/14 00:32:00;;;;;;;12.02;4.82;;;;;;;;;;5043134;28;20040;-64
2023/01/14 00:34:30;;;;;;;12.98;5.28;;;;;;;;;;5044575;28;20039;-66
2023/01/14 00:36:56;;;;;;;14.77;5.75;;;;;;;;;;5044163;28;20113;-64
2023/01/14 00:39:22;;;;;;;;;;;;;;;;;;5043072;28;20619;-64
2023/01/14 00:41:48;;;;;;;10.60;4.95;;;;;;;;;;5045176;28;19915;-64
2023/01/14 00:44:14;;;;;;;;;;;;;;;;;;5043135;28;20435;-63
2023/01/14 00:46:41;;;;;;;11.35;4.85;;;;;;;;;;5044514;28;19951;-66
2023/01/14 00:49:09;;;;;;;12.50;5.40;;;;;;;;;;5039182;28;20028;-64
2023/01/14 00:51:35;;;;;;;11.93;5.30;;;;;;;;;;5049329;28;20032;-64
2023/01/14 00:54:02;;;;;;;14.02;5.18;;;;;;;;;;5042984;28;20495;-66
2023/01/14 00:56:28;;;;;;;11.38;5.32;;;;;;;;;;5046157;28;20044;-66
2023/01/14 00:58:54;;;;;;;11.85;5.25;;;;;;;;;;5043530;28;20059;-65
2023/01/14 01:01:21;;;;;;;12.45;5.45;;;;;;;;;;5038775;28;20779;-65
2023/01/14 01:03:48;;;;;;;12.52;6.13;;;;;;;;;;5043614;28;20051;-65
2023/01/14 01:06:15;;;;;;;13.25;6.03;;;;;;;;;;5036373;28;20342;-64
2023/01/14 01:08:41;;;;;;;14.07;6.38;;;;;;;;;;5047646;28;20534;-65
2023/01/14 01:11:08;;;;;;;12.70;6.00;;;;;;;;;;5043053;28;20036;-65
2023/01/14 01:13:35;;;;;;;13.65;5.60;;;;;;;;;;5045929;28;20028;-67
2023/01/14 01:16:04;;;;;;;14.38;5.43;;;;;;;;;;5039648;28;20036;-66
2023/01/14 01:18:30;;;;;;;12.75;5.55;;;;;;;;;;5045666;28;20033;-64
2023/01/14 01:21:06;;;;;;;12.57;5.15;;;;;;;;;;5046569;28;20039;-64
2023/01/14 01:23:33;;;;;;;11.02;4.43;;;;;;;;;;5046077;28;20024;-65
2023/01/14 01:26:00;;;;;;;11.85;4.25;;;;;;;;;;5046647;28;20297;-65
2023/01/14 01:28:27;;;;;;;12.73;5.35;;;;;;;;;;5047749;28;20477;-65
2023/01/14 01:30:53;;;;;;;13.13;5.45;;;;;;;;;;5050889;28;20055;-64
2023/01/14 01:33:19;;;;;;;14.93;5.68;;;;;;;;;;5043950;28;20050;-64
2023/01/14 01:35:46;;;;;;;;;;;;;;;;;;5043444;28;20108;-66
2023/01/14 01:38:12;;;;;;;10.85;3.97;;;;;;;;;;5041993;28;19912;-66
2023/01/14 01:40:38;;;;;;;11.82;4.68;;;;;;;;;;5048557;28;20175;-66
2023/01/14 01:43:05;;;;;;;13.00;4.80;;;;;;;;;;5043905;28;20086;-64
2023/01/14 01:45:41;;;;;;;10.07;4.72;;;;;;;;;;5046552;28;20226;-65
2023/01/14 01:48:27;;;;;;;12.15;5.40;;;;;;;;;;5043636;28;20103;-67
2023/01/14 01:50:56;;;;;;;14.77;5.00;;;;;;;;;;5041970;28;20602;-65
2023/01/14 01:53:23;;;;;;;13.05;4.78;;;;;;;;;;5044149;28;20032;-64
2023/01/14 01:55:56;;;;;;;12.32;4.35;;;;;;;;;;5044910;28;20032;-65
2023/01/14 01:58:22;;;;;;;12.63;4.05;;;;;;;;;;5040701;28;20881;-64
2023/01/14 02:00:48;;;;;;;;;;;;;;;;;;5046731;28;20113;-65
2023/01/14 02:03:23;;;;;;;11.90;4.72;;;;;;;;;;5040045;28;19920;-65
2023/01/14 02:05:50;;;;;;;12.20;4.40;;;;;;;;;;5042896;28;20032;-64
2023/01/14 02:08:17;;;;;;;11.93;4.35;;;;;;;;;;5049573;28;20036;-64
2023/01/14 02:10:46;;;;;;;13.07;5.22;;;;;;;;;;5055598;28;20283;-64
2023/01/14 02:13:27;;;;;;;15.40;6.13;;;;;;;;;;5042673;28;20025;-64
2023/01/14 02:15:59;;;;;;;12.98;6.32;;;;;;;;;;5049209;28;20100;-64
2023/01/14 02:18:32;;;;;;;12.60;5.75;;;;;;;;;;5052202;28;20029;-64
2023/01/14 02:20:58;;;;;;;12.35;5.35;;;;;;;;;;5052339;28;20036;-65
2023/01/14 02:23:27;;;;;;;11.80;5.30;;;;;;;;;;5052026;28;20032;-64
2023/01/14 02:26:20;;;;;;;12.20;4.60;;;;;;;;;;5050122;28;20536;-64
2023/01/14 02:28:55;;;;;;;14.35;5.20;;;;;;;;;;5053045;28;20032;-65
2023/01/14 02:31:24;;;;;;;11.50;5.13;;;;;;;;;;5047686;28;20959;-64
2023/01/14 02:33:50;;;;;;;12.15;4.65;;;;;;;;;;5044327;28;20078;-64
2023/01/14 02:36:32;;;;;;;10.93;4.55;;;;;;;;;;5039128;28;20040;-64
2023/01/14 02:39:04;;;;;;;11.40;4.28;;;;;;;;;;5048899;28;20027;-64
2023/01/14 02:44:22;;;;;;;15.10;4.32;;;;;;;;;;5049177;28;20032;-63
2023/01/14 02:46:53;;;;;;;11.23;4.38;;;;;;;;;;5049268;28;20514;-66
2023/01/14 02:49:24;;;;;;;11.77;4.45;;;;;;;;;;5045307;28;20158;-66
2023/01/14 02:51:51;;;;;;;12.25;4.45;;;;;;;;;;5053821;28;20036;-65
2023/01/14 02:54:17;;;;;;;14.50;5.40;;;;;;;;;;5048981;28;20833;-66
2023/01/14 02:56:44;;;;;;;12.70;4.50;;;;;;;;;;5051569;28;20035;-64
2023/01/14 02:59:16;;;;;;;10.32;4.20;;;;;;;;;;5049112;28;20020;-64
2023/01/14 03:01:55;;;;;;;12.98;4.60;;;;;;;;;;5056214;28;20075;-64
2023/01/14 03:04:45;;;;;;;12.48;3.92;;;;;;;;;;5053470;28;20065;-65
2023/01/14 03:07:20;;;;;;;11.88;4.43;;;;;;;;;;5051758;28;20041;-64
2023/01/14 03:09:46;;;;;;;13.32;3.97;;;;;;;;;;5055352;28;20024;-65
2023/01/14 03:12:19;;;;;;;11.02;3.72;;;;;;;;;;5050782;28;20044;-65
2023/01/14 03:14:54;;;;;;;11.85;3.80;;;;;;;;;;5056230;28;20029;-65
2023/01/14 03:17:27;;;;;;;11.88;3.40;;;;;;;;;;5048871;28;20043;-65
2023/01/14 03:19:57;;;;;;;10.95;3.42;;;;;;;;;;5052993;28;20028;-65
2023/01/14 03:22:24;;;;;;;9.68;3.40;;;;;;;;;;5053068;28;20334;-65
2023/01/14 03:24:53;;;;;;;9.82;3.78;;;;;;;;;;5055547;28;20078;-65
2023/01/14 03:27:23;;;;;;;10.02;3.60;;;;;;;;;;5052142;28;20024;-65
2023/01/14 03:29:54;;;;;;;11.75;3.90;;;;;;;;;;5051967;28;20363;-65
2023/01/14 03:32:30;;;;;;;12.25;4.38;;;;;;;;;;5053103;28;20081;-66
2023/01/14 03:35:01;;;;;;;10.77;3.63;;;;;;;;;;5055387;28;20405;-66
2023/01/14 03:37:28;;;;;;;10.25;3.65;;;;;;;;;;5055248;28;20041;-66
2023/01/14 03:39:55;;;;;;;10.60;3.75;;;;;;;;;;5058363;28;20024;-64
2023/01/14 03:42:24;;;;;;;11.70;3.83;;;;;;;;;;5053450;28;20402;-63
2023/01/14 03:44:55;;;;;;;10.07;3.90;;;;;;;;;;5056630;28;20021;-64
2023/01/14 03:47:22;;;;;;;10.68;3.40;;;;;;;;;;5052997;28;20344;-66
2023/01/14 03:49:51;;;;;;;12.10;3.50;;;;;;;;;;5054150;28;20032;-64
2023/01/14 03:52:36;;;;;;;11.10;4.10;;;;;;;;;;5051707;28;20514;-64
2023/01/14 03:55:05;;;;;;;10.82;3.75;;;;;;;;;;5050878;28;20169;-64
2023/01/14 03:57:35;;;;;;;12.35;4.07;;;;;;;;;;5057265;28;20117;-64
2023/01/14 04:00:04;;;;;;;10.70;4.55;;;;;;;;;;5050454;28;20035;-64
2023/01/14 04:02:30;;;;;;;11.55;4.13;;;;;;;;;;5050156;28;20034;-64
2023/01/14 04:04:57;;;;;;;11.02;4.22;;;;;;;;;;5057225;28;20074;-65
2023/01/14 04:07:24;;;;;;;13.15;4.20;;;;;;;;;;5054951;28;20601;-65
2023/01/14 04:09:50;;;;;;;14.45;4.10;;;;;;;;;;5055192;28;20033;-64
2023/01/14 04:12:17;;;;;;;14.70;4.30;;;;;;;;;;5051939;28;20745;-64
2023/01/14 04:17:27;;;;;;;13.90;4.38;;;;;;;;;;5053699;28;20095;-66
2023/01/14 04:19:54;;;;;;;10.88;3.90;;;;;;;;;;5054357;28;20027;-65
2023/01/14 04:22:20;;;;;;;11.95;3.90;;;;;;;;;;5055238;28;20863;-65
2023/01/14 04:24:46;;;;;;;10.30;3.72;;;;;;;;;;5053986;28;20465;-66
2023/01/14 04:27:12;;;;;;;11.52;3.88;;;;;;;;;;5052213;28;20489;-64
2023/01/14 04:29:38;;;;;;;10.82;3.50;;;;;;;;;;5053341;28;20042;-65
2023/01/14 04:32:04;;;;;;;12.00;3.65;;;;;;;;;;5047141;28;20155;-64
2023/01/14 04:34:31;;;;;;;11.23;4.25;;;;;;;;;;5053722;28;20130;-64
2023/01/14 04:36:57;;;;;;;11.43;3.90;;;;;;;;;;5059867;28;20039;-64
2023/01/14 04:39:23;;;;;;;9.32;3.50;;;;;;;;;;5051058;28;20028;-64
2023/01/14 04:44:33;;;;;;;11.07;3.45;;;;;;;;;;5055913;28;20050;-64
2023/01/14 04:47:00;;;;;;;9.35;3.10;;;;;;;;;;5052652;28;20026;-64
2023/01/14 04:49:26;;;;;;;12.60;3.97;;;;;;;;;;5054455;28;20364;-64
2023/01/14 04:51:52;;;;;;;12.20;3.28;;;;;;;;;;5055584;28;20034;-64
2023/01/14 04:54:18;;;;;;;9.82;3.55;;;;;;;;;;5049839;28;20142;-65
2023/01/14 04:56:44;;;;;;;12.23;3.70;;;;;;;;;;5048847;28;20031;-66
2023/01/14 04:59:11;;;;;;;10.35;3.88;;;;;;;;;;5048766;28;20487;-65
2023/01/14 05:01:37;;;;;;;9.98;3.38;;;;;;;;;;5053844;28;20512;-64
2023/01/14 05:04:03;;;;;;;11.65;3.42;;;;;;;;;;5051107;28;20186;-64
2023/01/14 05:06:29;;;;;;;13.88;4.30;;;;;;;;;;5056367;28;20043;-65
2023/01/14 05:08:55;;;;;;;;;;;;;;;;;;5056739;28;20442;-65
2023/01/14 05:11:21;;;;;;;13.68;5.18;;;;;;;;;;5051004;28;20333;-65
2023/01/14 05:13:48;;;;;;;11.25;4.95;;;;;;;;;;5050184;28;20037;-65
2023/01/14 05:16:17;;;;;;;13.52;5.03;;;;;;;;;;5051290;28;20100;-65
2023/01/14 05:18:44;;;;;;;12.75;5.05;;;;;;;;;;5056364;28;20115;-66
2023/01/14 05:21:10;;;;;;;12.45;4.97;;;;;;;;;;5050942;28;20020;-66
2023/01/14 05:23:38;;;;;;;13.68;4.80;;;;;;;;;;5054986;28;20035;-64
2023/01/14 05:26:04;;;;;;;13.50;3.95;;;;;;;;;;5049791;28;20146;-65
2023/01/14 05:28:30;;;;;;;9.60;3.67;;;;;;;;;;5050530;28;20029;-64
2023/01/14 05:30:56;;;;;;;10.05;3.65;;;;;;;;;;5049154;28;20043;-65
2023/01/14 05:33:23;;;;;;;12.77;3.95;;;;;;;;;;5051870;28;20032;-64
2023/01/14 05:35:49;;;;;;;12.13;3.83;;;;;;;;;;5053968;28;20037;-64
2023/01/14 05:38:15;;;;;;;10.48;3.92;;;;;;;;;;5050194;28;20036;-64
2023/01/14 05:40:43;;;;;;;11.77;4.30;;;;;;;;;;5056584;28;20038;-64
2023/01/14 05:45:54;;;;;;;12.07;3.97;;;;;;;;;;5053370;28;20451;-64
2023/01/14 05:48:24;;;;;;;11.98;3.53;;;;;;;;;;5054292;28;21038;-65
2023/01/14 05:50:51;;;;;;;12.85;3.47;;;;;;;;;;5053547;28;20246;-65
2023/01/14 05:53:17;;;;;;;15.25;4.68;;;;;;;;;;5048870;28;20040;-63
2023/01/14 05:55:44;;;;;;;12.43;3.58;;;;;;;;;;5053285;28;20024;-64
2023/01/14 05:58:10;;;;;;;11.85;3.38;;;;;;;;;;5050917;28;20034;-64
2023/01/14 06:06:30;;;;;;;14.57;4.15;;;;;;;;;;5051924;28;20047;-66
2023/01/14 06:08:58;;;;;;;12.20;4.38;;;;;;;;;;5055742;28;20024;-65
2023/01/14 06:11:25;;;;;;;11.50;4.15;;;;;;;;;;5048584;28;20667;-65
2023/01/14 06:13:53;;;;;;;9.50;3.80;;;;;;;;;;5048090;28;20441;-65
2023/01/14 06:16:19;;;;;;;11.25;3.75;;;;;;;;;;5049778;28;20090;-65
2023/01/14 06:18:46;;;;;;;11.98;3.80;;;;;;;;;;5053455;28;20301;-65
2023/01/14 06:21:12;;;;;;;;;;;;;;;;;;5050154;28;20032;-66
2023/01/14 06:23:38;;;;;;;11.90;3.45;;;;;;;;;;5053073;28;19912;-66
2023/01/14 06:26:08;;;;;;;9.73;3.25;;;;;;;;;;5047187;28;20024;-66
2023/01/14 06:28:34;;;;;;;9.45;3.60;;;;;;;;;;5051979;28;20032;-66
2023/01/14 06:31:00;;;;;;;11.50;4.20;;;;;;;;;;5050999;28;20158;-65
2023/01/14 06:33:26;;;;;;;11.75;4.32;;;;;;;;;;5048347;28;20032;-66
2023/01/14 06:35:55;;;;;;;11.02;4.07;;;;;;;;;;5053227;28;20028;-65
2023/01/14 06:38:21;;;;;;;11.30;3.95;;;;;;;;;;5054604;28;20054;-64
2023/01/14 06:40:47;;;;;;;10.43;4.50;;;;;;;;;;5055835;28;20381;-65
2023/01/14 06:43:13;;;;;;;10.55;4.13;;;;;;;;;;5051589;28;20033;-65
2023/01/14 06:45:39;;;;;;;9.77;4.30;;;;;;;;;;5058926;28;20288;-64
2023/01/14 06:48:06;;;;;;;10.38;4.28;;;;;;;;;;5049295;28;20933;-64
2023/01/14 06:50:32;;;;;;;11.32;4.28;;;;;;;;;;5053243;28;20032;-64
2023/01/14 06:53:02;;;;;;;12.52;4.10;;;;;;;;;;5053124;28;20045;-64
2023/01/14 06:55:28;;;;;;;11.85;4.30;;;;;;;;;;5050971;28;20037;-65
2023/01/14 06:57:54;;;;;;;;;;;;;;;;;;5053446;28;20036;-65
2023/01/14 07:00:21;;;;;;;13.65;4.72;;;;;;;;;;5052873;28;20031;-65
2023/01/14 07:02:47;;;;;;;14.25;5.13;;;;;;;;;;5053164;28;20751;-64
2023/01/14 07:05:14;;;;;;;14.23;4.80;;;;;;;;;;5051473;28;20384;-67
2023/01/14 07:07:40;;;;;;;13.38;4.80;;;;;;;;;;5054423;28;20378;-64
2023/01/14 07:10:06;;;;;;;13.63;4.50;;;;;;;;;;5050552;28;20371;-64
2023/01/14 07:12:32;;;;;;;12.88;4.60;;;;;;;;;;5052498;28;20119;-65
2023/01/14 07:14:59;;;;;;;13.95;4.60;;;;;;;;;;5052695;28;20131;-64
2023/01/14 07:17:25;;;;;;;12.07;4.63;;;;;;;;;;5050151;28;20044;-66
2023/01/14 07:19:51;;;;;;;11.77;4.60;;;;;;;;;;5054545;28;20312;-64
2023/01/14 07:22:17;;;;;;;15.65;5.05;;;;;;;;;;5053734;28;20043;-65
2023/01/14 07:24:43;;;;;;;15.52;4.93;;;;;;;;;;5056393;28;20640;-64
2023/01/14 07:27:09;;;;;;;12.63;4.90;;;;;;;;;;5050469;28;20454;-66
2023/01/14 07:29:35;;;;;;;13.45;5.05;;;;;;;;;;5050250;28;20028;-64
2023/01/14 07:32:02;;;;;;;12.50;4.88;;;;;;;;;;5048514;28;20355;-64
2023/01/14 07:34:28;;;;;;;13.48;4.72;;;;;;;;;;5049372;28;20059;-65
2023/01/14 07:36:54;;;;;;;12.38;4.80;;;;;;;;;;5056811;28;20086;-65
2023/01/14 07:39:20;;;;;;;14.77;4.72;;;;;;;;;;5052398;28;22013;-64
2023/01/14 07:41:46;;;;;;;12.45;4.35;;;;;;;;;;5053487;28;20615;-64
2023/01/14 07:44:12;;;;;;;12.75;4.57;;;;;;;;;;5052018;28;20579;-66
2023/01/14 07:46:38;;;;;;;14.38;4.85;;;;;;;;;;5052026;28;20037;-64
2023/01/14 07:49:04;;;;;;;14.75;5.30;;;;;;;;;;5049211;28;20097;-66
2023/01/14 07:51:31;;;;;;;15.90;5.40;;;;;;;;;;5051705;28;20304;-65
2023/01/14 07:53:57;;;;;;;17.75;6.10;;;;;;;;;;5049868;28;20043;-65
2023/01/14 07:56:23;;;;;;;20.35;6.07;;;;;;;;;;5047829;28;20029;-64
2023/01/14 07:58:49;;;;;;;16.15;7.22;;;;;;;;;;5056266;28;20020;-65
2023/01/14 08:01:15;;;;;;;19.73;7.38;;;;;;;;;;5049571;28;20130;-64
2023/01/14 08:03:41;;;;;;;18.67;8.10;;;;;;;;;;5052632;28;20072;-64
2023/01/14 08:06:07;;;;;;;13.88;6.55;;;;;;;;;;5047131;28;20052;-66
2023/01/14 08:08:34;;;;;;;17.48;6.88;;;;;;;;;;5052514;28;20020;-65
2023/01/14 08:11:00;;;;;;;;;;;;;;;;;;5055314;28;20028;-64
2023/01/14 08:13:27;;;;;;;15.05;5.93;;;;;;;;;;5051810;28;20256;-64
2023/01/14 08:15:57;;;;;;;11.18;5.15;;;;;;;;;;5055133;28;20020;-67
2023/01/14 08:18:24;;;;;;;15.02;5.68;;;;;;;;;;5054082;28;20032;-68
2023/01/14 08:20:57;;;;;;;13.23;5.63;;;;;;;;;;5054235;28;20059;-64
2023/01/14 08:23:23;;;;;;;15.13;6.10;;;;;;;;;;5048609;28;20553;-66
2023/01/14 08:25:49;;;;;;;16.50;6.28;;;;;;;;;;5055561;28;20024;-66
2023/01/14 08:28:15;;;;;;;15.55;6.15;;;;;;;;;;5050794;28;20044;-64
2023/01/14 08:30:42;;;;;;;14.30;5.88;;;;;;;;;;5054813;28;20032;-64
2023/01/14 08:33:08;;;;;;;15.43;6.40;;;;;;;;;;5047704;28;20458;-66
2023/01/14 08:35:39;;;;;;;16.33;6.35;;;;;;;;;;5052523;28;20048;-65
2023/01/14 08:38:05;;;;;;;15.50;6.50;;;;;;;;;;5043002;28;20215;-65
2023/01/14 08:40:31;;;;;;;16.20;6.30;;;;;;;;;;5054392;28;20406;-66
2023/01/14 08:42:57;;;;;;;13.75;5.80;;;;;;;;;;5052200;28;20036;-66
2023/01/14 08:45:23;;;;;;;15.32;5.78;;;;;;;;;;5047807;28;20231;-66
2023/01/14 08:47:49;;;;;;;14.40;5.32;;;;;;;;;;5050262;28;20032;-66
2023/01/14 08:50:16;;;;;;;13.88;4.90;;;;;;;;;;5049865;28;20304;-65
2023/01/14 08:52:42;;;;;;;14.50;5.50;;;;;;;;;;5049049;28;20139;-65
2023/01/14 08:55:08;;;;;;;14.05;6.13;;;;;;;;;;5045579;28;20036;-66
2023/01/14 08:57:34;;;;;;;;;;;;;;;;;;5053587;28;20028;-68
2023/01/14 09:00:01;;;;;;;21.70;8.82;;;;;;;;;;5050655;28;20300;-65
2023/01/14 09:02:27;;;;;;;;;;;;;;;;;;5051910;28;20083;-65
2023/01/14 09:04:53;;;;;;;26.35;13.13;;;;;;;;;;5051637;28;19908;-65
2023/01/14 09:18:20;;;;;;;19.17;9.43;;;;;;;;;;5047815;28;21922;-65
2023/01/14 09:20:46;;;;;;;;;;;;;;;;;;5050037;28;20028;-66
2023/01/14 09:23:12;;;;;;;15.35;6.82;;;;;;;;;;5049763;28;19918;-66
2023/01/14 09:25:38;;;;;;;;;;;;;;;;;;5047137;28;20101;-66
2023/01/14 09:28:04;;;;;;;15.60;7.35;;;;;;;;;;5048786;28;20686;-66
2023/01/14 09:30:31;;;;;;;13.90;6.65;;;;;;;;;;5049956;28;20346;-65
2023/01/14 09:32:58;;;;;;;17.67;6.22;;;;;;;;;;5048762;28;20566;-65
2023/01/14 09:35:24;;;;;;;17.00;6.13;;;;;;;;;;5048260;28;20371;-65
2023/01/14 09:37:50;;;;;;;;;;;;;;;;;;5053196;28;20035;-65
2023/01/14 09:40:16;;;;;;;13.88;5.30;;;;;;;;;;5049007;28;20314;-66
2023/01/14 09:42:43;;;;;;;13.18;4.70;;;;;;;;;;5051671;28;20169;-66
2023/01/14 09:45:28;;;;;;;14.30;5.50;;;;;;;;;;5050110;28;20028;-66
2023/01/14 09:47:55;;;;;;;12.85;4.80;;;;;;;;;;5051772;28;20033;-67
2023/01/14 09:50:28;;;;;;;12.02;4.30;;;;;;;;;;5048236;28;20359;-66
2023/01/14 09:53:02;;;;;;;13.77;4.97;;;;;;;;;;5051895;28;20043;-66
2023/01/14 09:55:29;;;;;;;11.48;4.82;;;;;;;;;;5050388;28;20029;-66
2023/01/14 09:57:57;;;;;;;14.38;5.05;;;;;;;;;;5053146;28;20446;-67
2023/01/14 10:00:26;;;;;;;14.25;6.30;;;;;;;;;;5046804;28;20931;-66
2023/01/14 10:02:55;;;;;;;14.00;6.60;;;;;;;;;;5051108;28;20028;-64
2023/01/14 10:05:27;;;;;;;13.18;4.30;;;;;;;;;;5048059;28;20061;-65
2023/01/14 10:07:54;;;;;;;11.65;3.38;;;;;;;;;;5052016;28;20028;-64
2023/01/14 10:10:43;;;;;;;11.23;3.10;;;;;;;;;;5051114;28;20796;-66
2023/01/14 10:13:15;;;;;;;13.10;3.55;;;;;;;;;;5047928;28;20135;-65
2023/01/14 10:15:54;;;;;;;10.63;3.88;;;;;;;;;;5053202;28;20028;-67
2023/01/14 10:18:26;;;;;;;10.63;4.75;;;;;;;;;;5046777;28;20692;-65
2023/01/14 10:20:52;;;;;;;12.90;5.18;;;;;;;;;;5050921;28;20027;-67
2023/01/14 10:23:21;;;;;;;12.77;5.47;;;;;;;;;;5050094;28;20431;-66
2023/01/14 10:25:49;;;;;;;13.45;6.20;;;;;;;;;;5052038;28;20062;-66
2023/01/14 10:28:16;;;;;;;15.32;7.90;;;;;;;;;;5047612;28;20040;-64
2023/01/14 10:30:43;;;;;;;16.17;8.43;;;;;;;;;;5054444;28;20105;-64
2023/01/14 10:33:13;;;;;;;17.00;9.15;;;;;;;;;;5045431;28;20025;-66
2023/01/14 10:35:40;;;;;;;14.23;7.72;;;;;;;;;;5047571;28;20270;-66
2023/01/14 10:38:07;;;;;;;16.17;9.23;;;;;;;;;;5043571;28;20410;-65
2023/01/14 10:40:33;;;;;;;17.83;9.77;;;;;;;;;;5049197;28;20028;-66
2023/01/14 10:43:00;;;;;;;12.52;6.40;;;;;;;;;;5048378;28;20115;-66
2023/01/14 10:45:27;;;;;;;11.70;4.68;;;;;;;;;;5051659;28;20563;-66
2023/01/14 10:48:02;;;;;;;14.23;5.30;;;;;;;;;;5049403;28;20505;-66
2023/01/14 10:50:28;;;;;;;14.05;5.82;;;;;;;;;;5052616;28;20060;-66
2023/01/14 10:52:55;;;;;;;14.13;5.30;;;;;;;;;;5050361;28;20863;-67
2023/01/14 10:55:25;;;;;;;9.88;4.63;;;;;;;;;;5049679;28;20504;-65
2023/01/14 10:58:09;;;;;;;14.35;5.13;;;;;;;;;;5053063;28;20183;-67
2023/01/14 11:00:38;;;;;;;11.25;3.97;;;;;;;;;;5046752;28;20115;-65
2023/01/14 11:03:07;;;;;;;10.40;4.40;;;;;;;;;;5044659;28;20036;-67
2023/01/14 11:05:37;;;;;;;10.90;4.15;;;;;;;;;;5046162;28;20055;-67
2023/01/14 11:08:31;;;;;;;9.02;3.80;;;;;;;;;;5046144;28;20032;-69
2023/01/14 11:10:59;;;;;;;12.60;3.88;;;;;;;;;;5048973;28;20426;-67
2023/01/14 11:13:44;;;;;;;11.13;4.45;;;;;;;;;;5049963;28;20407;-68
2023/01/14 11:16:24;;;;;;;10.35;4.78;;;;;;;;;;5045453;28;20429;-67
2023/01/14 11:18:59;;;;;;;14.55;5.43;;;;;;;;;;5051590;28;20327;-67
2023/01/14 11:21:26;;;;;;;12.27;5.72;;;;;;;;;;5048844;28;20031;-68
2023/01/14 11:23:55;;;;;;;11.20;6.00;;;;;;;;;;5051429;28;20020;-68
2023/01/14 11:26:24;;;;;;;13.25;5.95;;;;;;;;;;5055691;28;20055;-68
2023/01/14 11:28:52;;;;;;;13.85;5.88;;;;;;;;;;5050835;28;20032;-69
2023/01/14 11:31:33;;;;;;;14.80;7.68;;;;;;;;;;5050162;28;20037;-67
2023/01/14 11:34:00;;;;;;;16.00;7.32;;;;;;;;;;5050332;28;20125;-69
2023/01/14 11:36:27;;;;;;;15.52;7.47;;;;;;;;;;5050812;28;20079;-67
2023/01/14 11:38:58;;;;;;;17.27;7.53;;;;;;;;;;5057222;28;20027;-69
2023/01/14 11:41:42;;;;;;;13.50;6.78;;;;;;;;;;5051473;28;20582;-68
2023/01/14 11:44:17;;;;;;;13.00;6.38;;;;;;;;;;5055110;28;20469;-68
2023/01/14 11:46:45;;;;;;;11.35;5.13;;;;;;;;;;5055991;28;20124;-68
2023/01/14 11:49:21;;;;;;;11.75;5.40;;;;;;;;;;5049766;28;20029;-68
2023/01/14 11:52:08;;;;;;;12.07;5.00;;;;;;;;;;5054442;28;20039;-69
2023/01/14 11:54:38;;;;;;;13.82;5.20;;;;;;;;;;5056531;28;20059;-68
2023/01/14 11:57:15;;;;;;;11.07;5.03;;;;;;;;;;5050628;28;20107;-69
2023/01/14 11:59:42;;;;;;;13.68;5.47;;;;;;;;;;5053988;28;20028;-67
2023/01/14 12:02:22;;;;;;;13.30;4.88;;;;;;;;;;5051060;28;20060;-67
2023/01/14 12:05:00;;;;;;;14.13;5.28;;;;;;;;;;5055260;28;20044;-68
2023/01/14 12:07:35;;;;;;;10.77;4.40;;;;;;;;;;5048984;28;20257;-67
2023/01/14 12:10:05;;;;;;;14.55;4.40;;;;;;;;;;5051472;28;20054;-68
2023/01/14 12:16:48;;;;;;;13.43;5.00;;;;;;;;;;5052000;28;20020;-67
2023/01/14 12:18:10;;;;;;;11.77;4.63;;;;;;;;;;5049114;28;20034;-68
2023/01/14 12:20:37;;;;;;;12.40;5.45;;;;;;;;;;5050552;28;20035;-69
2023/01/14 12:23:05;;;;;;;11.13;4.20;;;;;;;;;;5047264;28;20140;-67
2023/01/14 12:25:36;;;;;;;13.70;4.20;;;;;;;;;;5050461;28;20024;-68
2023/01/14 12:28:10;;;;;;;10.82;3.75;;;;;;;;;;5051677;28;20517;-67
2023/01/14 12:30:39;;;;;;;10.95;3.80;;;;;;;;;;5052324;28;20041;-68
2023/01/14 12:33:23;;;;;;;13.07;4.20;;;;;;;;;;5044089;28;20024;-68
2023/01/14 12:35:54;;;;;;;10.65;4.15;;;;;;;;;;5046441;28;20168;-67
2023/01/14 12:46:42;;;;;;;10.18;4.07;;;;;;;;;;5047258;28;20110;-68
2023/01/14 12:49:09;;;;;;;12.07;4.13;;;;;;;;;;5050493;28;20025;-68
2023/01/14 12:51:37;;;;;;;11.18;3.65;;;;;;;;;;5053032;28;20799;-69
2023/01/14 12:54:06;;;;;;;8.57;3.00;;;;;;;;;;5045611;28;20044;-68
2023/01/14 12:56:33;;;;;;;8.98;3.60;;;;;;;;;;5050916;28;20036;-68
2023/01/14 12:59:08;;;;;;;10.00;3.25;;;;;;;;;;5052872;28;20107;-67
2023/01/14 13:01:38;;;;;;;8.30;2.92;;;;;;;;;;5054130;28;20049;-67
2023/01/14 13:04:06;;;;;;;10.48;3.42;;;;;;;;;;5049230;28;20100;-67
2023/01/14 13:06:34;;;;;;;8.80;2.97;;;;;;;;;;5046917;28;20041;-68
2023/01/14 13:09:01;;;;;;;6.80;2.35;;;;;;;;;;5047265;28;20085;-67
2023/01/14 13:11:28;;;;;;;13.43;3.08;;;;;;;;;;5053615;28;20396;-68
2023/01/14 13:13:56;;;;;;;7.53;2.30;;;;;;;;;;5052115;28;20024;-67
2023/01/14 13:16:42;;;;;;;7.35;2.22;;;;;;;;;;5047926;28;20477;-67
2023/01/14 13:19:27;;;;;;;10.05;2.60;;;;;;;;;;5046006;28;20033;-68
2023/01/14 13:22:09;;;;;;;10.40;2.28;;;;;;;;;;5050057;28;20029;-68
2023/01/14 13:24:35;;;;;;;7.90;1.75;;;;;;;;;;5051307;28;20020;-68
2023/01/14 13:27:03;;;;;;;7.22;2.20;;;;;;;;;;5044266;28;20032;-69
2023/01/14 13:29:31;;;;;;;8.30;2.65;;;;;;;;;;5048601;28;20155;-68
2023/01/14 13:31:57;;;;;;;7.32;1.90;;;;;;;;;;5048355;28;20271;-69
2023/01/14 13:34:25;;;;;;;5.50;1.85;;;;;;;;;;5046905;28;20197;-69
2023/01/14 13:37:02;;;;;;;5.90;1.92;;;;;;;;;;5044877;28;20252;-68
2023/01/14 13:39:29;;;;;;;6.57;1.77;;;;;;;;;;5047429;28;20031;-68
2023/01/14 13:41:57;;;;;;;7.63;1.75;;;;;;;;;;5047749;28;20109;-67
2023/01/14 13:44:26;;;;;;;6.65;1.73;;;;;;;;;;5042317;28;20054;-67
2023/01/14 13:47:00;;;;;;;6.25;1.58;;;;;;;;;;5044427;28;20593;-69
2023/01/14 13:49:36;;;;;;;7.25;2.20;;;;;;;;;;5048280;28;20028;-69
2023/01/14 13:52:12;;;;;;;6.35;1.67;;;;;;;;;;5043846;28;20131;-68
2023/01/14 13:54:38;;;;;;;;;;;;;;;;;;5049983;28;20116;-67
2023/01/14 13:57:07;;;;;;;8.95;1.88;;;;;;;;;;5046498;28;19924;-67
2023/01/14 13:59:34;;;;;;;6.88;2.20;;;;;;;;;;5050003;28;20486;-66
2023/01/14 14:02:00;;;;;;;8.55;2.00;;;;;;;;;;5050122;28;20144;-67
2023/01/14 14:04:45;;;;;;;6.85;2.00;;;;;;;;;;5045223;28;20606;-70
2023/01/14 14:07:31;;;;;;;7.57;2.08;;;;;;;;;;5046262;28;20314;-69
2023/01/14 14:10:00;;;;;;;7.88;2.30;;;;;;;;;;5051231;28;20028;-69
2023/01/14 14:15:33;;;;;;;6.65;2.13;;;;;;;;;;5044926;28;20147;-68
2023/01/14 14:18:02;;;;;;;10.05;2.30;;;;;;;;;;5054426;28;20024;-69
2023/01/14 14:20:35;;;;;;;7.15;2.22;;;;;;;;;;5051367;28;20031;-67
2023/01/14 14:23:04;;;;;;;6.43;1.60;;;;;;;;;;5052839;28;20052;-70
2023/01/14 14:25:43;;;;;;;7.00;1.92;;;;;;;;;;5051251;28;20028;-67
2023/01/14 14:28:14;;;;;;;7.22;1.90;;;;;;;;;;5045661;28;20668;-68
2023/01/14 14:30:44;;;;;;;6.95;2.30;;;;;;;;;;5048218;28;20044;-67
2023/01/14 14:33:29;;;;;;;7.75;2.22;;;;;;;;;;5040912;28;20046;-67
2023/01/14 14:35:55;;;;;;;7.28;2.40;;;;;;;;;;5050216;28;20490;-69
2023/01/14 14:38:22;;;;;;;6.80;2.47;;;;;;;;;;5041985;28;20028;-68
2023/01/14 14:40:49;;;;;;;7.85;2.20;;;;;;;;;;5046763;28;20623;-67
2023/01/14 14:43:23;;;;;;;6.50;1.65;;;;;;;;;;5044279;28;20021;-68
2023/01/14 14:45:59;;;;;;;6.72;1.83;;;;;;;;;;5051915;28;20048;-69
2023/01/14 14:48:30;;;;;;;9.25;2.00;;;;;;;;;;5044827;28;20698;-68
2023/01/14 14:50:57;;;;;;;7.05;1.70;;;;;;;;;;5053055;28;20032;-67
2023/01/14 14:53:29;;;;;;;8.40;2.00;;;;;;;;;;5044129;28;20044;-68
2023/01/14 14:55:57;;;;;;;6.45;2.03;;;;;;;;;;5048542;28;20040;-68
2023/01/14 14:58:24;;;;;;;5.78;1.65;;;;;;;;;;5053791;28;20066;-68
2023/01/14 15:00:58;;;;;;;7.28;1.90;;;;;;;;;;5049607;28;20134;-67
2023/01/14 15:03:25;;;;;;;8.18;1.90;;;;;;;;;;5048754;28;20549;-68
2023/01/14 15:05:51;;;;;;;7.97;1.70;;;;;;;;;;5054528;28;20648;-68
2023/01/14 15:08:21;;;;;;;6.70;1.73;;;;;;;;;;5048079;28;20064;-68
2023/01/14 15:10:48;;;;;;;5.80;1.95;;;;;;;;;;5051338;28;20036;-67
2023/01/14 15:13:27;;;;;;;6.85;2.10;;;;;;;;;;5050674;28;20113;-68
2023/01/14 15:16:03;;;;;;;5.80;1.73;;;;;;;;;;5052391;28;20042;-67
2023/01/14 15:18:58;;;;;;;7.28;2.25;;;;;;;;;;5055511;28;20112;-69
2023/01/14 15:21:29;;;;;;;8.98;2.63;;;;;;;;;;5049384;28;20044;-68
2023/01/14 15:23:57;;;;;;;7.32;2.08;;;;;;;;;;5053747;28;20586;-68
2023/01/14 15:26:28;;;;;;;6.10;2.17;;;;;;;;;;5051861;28;20236;-70
2023/01/14 15:28:55;;;;;;;8.23;3.13;;;;;;;;;;5051598;28;20112;-68
2023/01/14 15:31:24;;;;;;;9.23;3.22;;;;;;;;;;5050679;28;20399;-67